Terminal Aerodrome Forecast
Issued by NWS

Home | Current Version | Previous Version | Text Only | Print | Product List | Glossary On
Versions: 1 2 3 4 5 6 7 8 9 10 11 12 13 14 15
000
FTUS43 KAPX 240520
TAFMBL
TAF
KMBL 240520Z 2406/2506 07006KT P6SM SCT060
     FM241300 13005KT P6SM SCT200
     FM241800 19006KT P6SM FEW150
     FM242100 30005KT P6SM FEW250
     FM242300 16005KT P6SM SCT250=

USA.gov is the U.S. government's official web portal to all federal, state and local government web resources and services.